createdAt,value
2023-03-10T00:00:22.673Z,0.5
2023-03-10T00:01:22.244Z,0.400
2023-03-10T00:02:21.911Z,0.600
2023-03-10T00:03:21.719Z,0.300
2023-03-10T00:04:21.807Z,0.600
2023-03-10T00:06:22.162Z,0.400
2023-03-10T00:07:21.813Z,0.5
2023-03-10T00:08:21.666Z,0.400
2023-03-10T00:10:21.253Z,0.5
2023-03-10T00:11:21.966Z,0.400
2023-03-10T00:14:19.347Z,0.300
2023-03-10T00:16:21.624Z,0.699
2023-03-10T00:17:21.375Z,0.400
2023-03-10T00:18:21.671Z,0.600
2023-03-10T00:19:21.592Z,0.400
2023-03-10T00:20:21.892Z,0.5
2023-03-10T00:21:22.081Z,0.600
2023-03-10T00:22:21.295Z,0.400
2023-03-10T00:23:21.305Z,0.300
2023-03-10T00:24:21.238Z,0.400
2023-03-10T00:25:21.204Z,0.300
2023-03-10T00:26:21.140Z,0.600
2023-03-10T00:27:21.647Z,0.300
2023-03-10T00:28:21.446Z,0.400
2023-03-10T00:30:22.096Z,0.300
2023-03-10T00:31:21.306Z,0.200
2023-03-10T00:32:21.332Z,0.300
2023-03-10T00:33:21.255Z,0.5
2023-03-10T00:34:20.901Z,0.300
2023-03-10T00:35:21.519Z,0.200
2023-03-10T00:36:21.602Z,0.5
2023-03-10T00:37:21.412Z,0.400
2023-03-10T00:39:21.080Z,0.5
2023-03-10T00:40:21.940Z,0.200
2023-03-10T00:41:21.461Z,0.300
2023-03-10T00:42:21.377Z,0.400
2023-03-10T00:43:21.143Z,0.300
2023-03-10T00:47:21.470Z,0.400
2023-03-10T00:48:21.125Z,0.200
2023-03-10T00:50:21.323Z,0.400
2023-03-10T00:51:21.673Z,0.300
2023-03-10T00:52:21.715Z,0.200
2023-03-10T00:53:21.495Z,0.300
2023-03-10T00:55:22.043Z,0.5
2023-03-10T00:56:21.595Z,0.300
2023-03-10T00:58:21.535Z,0.400
2023-03-10T00:59:21.401Z,0.300
2023-03-10T01:03:21.391Z,0.200
2023-03-10T01:04:21.568Z,0.300
2023-03-10T01:05:21.760Z,0.400
2023-03-10T01:06:21.568Z,0.300
2023-03-10T01:07:21.203Z,0.5
2023-03-10T01:08:21.332Z,0.400
2023-03-10T01:09:20.947Z,0.300
2023-03-10T01:10:22.503Z,0.200
2023-03-10T01:12:21.318Z,0.400
2023-03-10T01:13:21.150Z,0.300
2023-03-10T01:15:21.895Z,0.200
2023-03-10T01:16:21.925Z,0.100
2023-03-10T01:17:21.948Z,0.300
2023-03-10T01:18:21.361Z,0.200
2023-03-10T01:20:22.077Z,0.400
2023-03-10T01:23:21.169Z,0.5
2023-03-10T01:24:35.214Z,0.300
2023-03-10T01:25:20.855Z,0.5
2023-03-10T01:26:21.300Z,0.100
2023-03-10T01:27:21.197Z,0.300
2023-03-10T01:28:34.802Z,0.100
2023-03-10T01:29:21.076Z,0.300
2023-03-10T01:30:21.707Z,0.400
2023-03-10T01:31:21.601Z,0.200
2023-03-10T01:33:21.273Z,0.300
2023-03-10T01:34:21.481Z,0.400
2023-03-10T01:35:21.461Z,0.300
2023-03-10T01:36:21.138Z,0.200
2023-03-10T01:40:21.352Z,0.300
2023-03-10T01:42:21.274Z,0.200
2023-03-10T01:43:21.266Z,0.100
2023-03-10T01:44:21.146Z,0.200
2023-03-10T01:45:21.790Z,0.300
2023-03-10T01:46:21.244Z,0.200
2023-03-10T01:48:21.581Z,0.100
2023-03-10T01:49:21.168Z,0.200
2023-03-10T01:51:20.868Z,0.100
2023-03-10T01:52:21.483Z,0.200
2023-03-10T01:54:21.111Z,0.400
2023-03-10T01:56:21.288Z,0.300
2023-03-10T01:58:21.066Z,0.400
2023-03-10T02:00:22.630Z,0.200
2023-03-10T02:02:21.510Z,0.300
2023-03-10T02:03:21.802Z,0.600
2023-03-10T02:04:21.134Z,0.300
2023-03-10T02:07:21.256Z,0.200
2023-03-10T02:08:21.009Z,0.300
2023-03-10T02:10:21.635Z,0.400
2023-03-10T02:12:21.311Z,0.5
2023-03-10T02:13:21.322Z,0.300
2023-03-10T02:15:21.390Z,0.400
2023-03-10T02:16:21.269Z,0.5
2023-03-10T02:19:21.166Z,0.300
2023-03-10T02:21:21.106Z,0.5
2023-03-10T02:27:21.350Z,0.5
2023-03-10T02:30:21.589Z,0.699
2023-03-10T02:31:20.980Z,0.5
2023-03-10T02:32:21.140Z,0.600
2023-03-10T02:33:21.024Z,0.699
2023-03-10T02:34:20.761Z,0.5
2023-03-10T02:36:21.046Z,0.800
2023-03-10T02:37:21.338Z,0.699
2023-03-10T02:40:21.606Z,0.600
2023-03-10T02:41:21.742Z,0.800
2023-03-10T02:42:21.400Z,0.699
2023-03-10T02:43:20.824Z,1.200
2023-03-10T02:44:21.718Z,1.299
2023-03-10T02:45:21.638Z,1
2023-03-10T02:47:21.257Z,1.100
2023-03-10T02:48:20.991Z,1.399
2023-03-10T02:49:20.886Z,1.100
2023-03-10T02:50:22.048Z,1.299
2023-03-10T02:52:21.735Z,1.100
2023-03-10T02:53:21.458Z,1.200
2023-03-10T02:55:21.440Z,1.100
2023-03-10T02:56:21.178Z,1.399
2023-03-10T02:58:21.759Z,1.5
2023-03-10T02:59:21.178Z,1.700
2023-03-10T03:00:22.694Z,1.5
2023-03-10T03:01:21.670Z,1.600
2023-03-10T03:02:21.267Z,1.5
2023-03-10T03:03:21.080Z,1.700
2023-03-10T03:05:21.601Z,2
2023-03-10T03:07:21.358Z,1.600
2023-03-10T03:08:21.162Z,1.899
2023-03-10T03:09:21.202Z,1.5
2023-03-10T03:10:21.454Z,1.700
2023-03-10T03:11:20.803Z,1.799
2023-03-10T03:12:21.592Z,2.299
2023-03-10T03:13:20.723Z,2
2023-03-10T03:14:21.069Z,1.700
2023-03-10T03:15:21.849Z,1.799
2023-03-10T03:16:21.050Z,1.899
2023-03-10T03:17:20.953Z,1.5
2023-03-10T03:18:21.118Z,1.899
2023-03-10T03:19:21.241Z,1.600
2023-03-10T03:20:21.353Z,1.799
2023-03-10T03:21:20.580Z,1.700
2023-03-10T03:22:21.663Z,1.799
2023-03-10T03:23:21.238Z,2.400
2023-03-10T03:24:21.639Z,1.899
2023-03-10T03:25:21.971Z,2.099
2023-03-10T03:26:22.248Z,2.299
2023-03-10T03:27:20.898Z,2.099
2023-03-10T03:28:21.094Z,2
2023-03-10T03:30:22.250Z,2.200
2023-03-10T03:31:20.915Z,2.099
2023-03-10T03:32:20.600Z,2
2023-03-10T03:33:21.480Z,1.899
2023-03-10T03:34:21.425Z,2.200
2023-03-10T03:35:21.826Z,1.700
2023-03-10T03:36:21.428Z,1.799
2023-03-10T03:37:21.165Z,1.700
2023-03-10T03:38:20.908Z,1.899
2023-03-10T03:39:21.295Z,2.099
2023-03-10T03:40:21.050Z,2
2023-03-10T03:41:21.177Z,1.899
2023-03-10T03:42:20.797Z,2
2023-03-10T03:43:21.859Z,1.799
2023-03-10T03:44:21.601Z,2
2023-03-10T03:45:29.453Z,1.600
2023-03-10T03:46:21.366Z,1.799
2023-03-10T03:47:21.317Z,2
2023-03-10T03:48:22.402Z,1.899
2023-03-10T03:49:21.058Z,2
2023-03-10T03:51:21.492Z,1.700
2023-03-10T03:54:21.027Z,1.899
2023-03-10T03:55:21.428Z,2
2023-03-10T03:56:20.755Z,1.700
2023-03-10T03:57:21.495Z,1.899
2023-03-10T03:58:21.264Z,1.700
2023-03-10T03:59:20.981Z,1.799
2023-03-10T04:01:21.349Z,1.600
2023-03-10T04:02:20.872Z,2
2023-03-10T04:03:21.721Z,1.600
2023-03-10T04:04:21.116Z,1.799
2023-03-10T04:06:21.761Z,1.5
2023-03-10T04:07:21.513Z,1.600
2023-03-10T04:08:21.340Z,1.5
2023-03-10T04:09:21.268Z,1.399
2023-03-10T04:10:21.496Z,1.5
2023-03-10T04:11:21.420Z,1.700
2023-03-10T04:12:21.382Z,1.399
2023-03-10T04:14:20.959Z,1.700
2023-03-10T04:15:21.349Z,1.600
2023-03-10T04:16:21.306Z,1.299
2023-03-10T04:17:20.918Z,1.600
2023-03-10T04:18:21.169Z,1.799
2023-03-10T04:19:21.235Z,1.899
2023-03-10T04:20:21.821Z,1.5
2023-03-10T04:22:21.490Z,1.600
2023-03-10T04:23:21.280Z,1.399
2023-03-10T04:24:21.361Z,1.5
2023-03-10T04:26:22.010Z,1.799
2023-03-10T04:28:21.549Z,1.700
2023-03-10T04:29:21.417Z,1.5
2023-03-10T04:30:21.755Z,1.799
2023-03-10T04:32:21.369Z,1.600
2023-03-10T04:33:21.217Z,2.099
2023-03-10T04:34:21.396Z,1.799
2023-03-10T04:35:21.200Z,1.700
2023-03-10T04:39:21.006Z,2
2023-03-10T04:40:22.280Z,1.899
2023-03-10T04:41:21.260Z,1.700
2023-03-10T04:42:21.754Z,1.799
2023-03-10T04:43:20.734Z,2.099
2023-03-10T04:44:30.413Z,1.600
2023-03-10T04:47:21.373Z,1.700
2023-03-10T04:48:21.313Z,1.5
2023-03-10T04:49:20.917Z,1.600
2023-03-10T04:50:22.521Z,1.700
2023-03-10T04:52:21.509Z,1.399
2023-03-10T04:53:21.451Z,1.5
2023-03-10T04:54:21.149Z,1.700
2023-03-10T04:55:21.092Z,1.399
2023-03-10T04:56:21.940Z,1.600
2023-03-10T04:58:21.557Z,1.399
2023-03-10T04:59:21.813Z,1.299
2023-03-10T05:00:23.238Z,1.399
2023-03-10T05:01:21.583Z,1.5
2023-03-10T05:04:21.887Z,1.700
2023-03-10T05:06:21.599Z,1.600
2023-03-10T05:07:21.422Z,1.5
2023-03-10T05:08:21.529Z,1.700
2023-03-10T05:10:21.907Z,1.399
2023-03-10T05:11:21.020Z,1.5
2023-03-10T05:12:21.925Z,1.399
2023-03-10T05:14:21.239Z,1.299
2023-03-10T05:15:21.648Z,1.5
2023-03-10T05:16:21.621Z,1.200
2023-03-10T05:17:21.117Z,1.299
2023-03-10T05:19:21.349Z,1.399
2023-03-10T05:20:21.693Z,1.5
2023-03-10T05:21:21.523Z,1.299
2023-03-10T05:22:21.675Z,1
2023-03-10T05:23:20.973Z,1.200
2023-03-10T05:24:20.919Z,1
2023-03-10T05:25:22.372Z,1.299
2023-03-10T05:26:21.098Z,1.200
2023-03-10T05:27:21.255Z,1
2023-03-10T05:28:21.298Z,1.200
2023-03-10T05:30:21.591Z,1
2023-03-10T05:31:21.435Z,1.399
2023-03-10T05:32:21.694Z,1.200
2023-03-10T05:33:21.450Z,1
2023-03-10T05:34:21.431Z,1.100
2023-03-10T05:35:21.884Z,0.899
2023-03-10T05:36:21.863Z,1.100
2023-03-10T05:37:21.917Z,1
2023-03-10T05:38:21.458Z,0.800
2023-03-10T05:39:21.471Z,0.899
2023-03-10T05:40:21.300Z,1
2023-03-10T05:41:20.728Z,0.800
2023-03-10T05:43:21.266Z,0.899
2023-03-10T05:44:21.446Z,0.699
2023-03-10T05:45:21.409Z,1.100
2023-03-10T05:46:21.232Z,1
2023-03-10T05:47:21.129Z,0.600
2023-03-10T05:48:20.781Z,0.800
2023-03-10T05:49:21.318Z,0.699
2023-03-10T05:50:21.150Z,0.899
2023-03-10T05:51:20.881Z,0.699
2023-03-10T05:54:21.788Z,0.800
2023-03-10T05:56:21.930Z,0.899
2023-03-10T05:57:21.874Z,0.800
2023-03-10T05:58:21.668Z,0.600
2023-03-10T05:59:21.981Z,0.899
2023-03-10T06:00:28.301Z,0.699
2023-03-10T06:01:21.865Z,0.800
2023-03-10T06:02:21.126Z,0.5
2023-03-10T06:03:21.911Z,0.899
2023-03-10T06:04:21.760Z,0.699
2023-03-10T06:06:29.860Z,1
2023-03-10T06:07:21.987Z,0.699
2023-03-10T06:08:29.315Z,0.800
2023-03-10T06:09:22.217Z,0.899
2023-03-10T06:10:21.908Z,0.800
2023-03-10T06:12:35.630Z,0.899
2023-03-10T06:13:21.699Z,0.600
2023-03-10T06:14:35.367Z,0.699
2023-03-10T06:19:21.486Z,0.899
2023-03-10T06:20:21.969Z,0.800
2023-03-10T06:21:21.240Z,0.699
2023-03-10T06:22:20.772Z,0.5
2023-03-10T06:23:21.505Z,0.699
2023-03-10T06:25:21.757Z,0.899
2023-03-10T06:30:21.932Z,0.699
2023-03-10T06:31:21.710Z,1
2023-03-10T06:32:22.063Z,0.899
2023-03-10T06:35:21.866Z,0.800
2023-03-10T06:36:21.665Z,0.899
2023-03-10T06:37:21.633Z,0.800
2023-03-10T06:38:21.427Z,1.100
2023-03-10T06:39:21.820Z,1.200
2023-03-10T06:40:22.001Z,0.899
2023-03-10T06:41:21.738Z,1.100
2023-03-10T06:42:21.395Z,0.899
2023-03-10T06:44:21.280Z,1.200
2023-03-10T06:45:22.012Z,1.100
2023-03-10T06:47:22.071Z,0.899
2023-03-10T06:48:21.224Z,1
2023-03-10T06:50:22.124Z,1.200
2023-03-10T06:51:21.178Z,1.299
2023-03-10T06:53:21.099Z,0.699
2023-03-10T06:54:21.487Z,1.100
2023-03-10T06:55:22.934Z,1
2023-03-10T06:56:22.208Z,0.899
2023-03-10T06:57:22.053Z,1
2023-03-10T06:58:21.813Z,1.299
2023-03-10T06:59:21.444Z,1
2023-03-10T07:01:22.074Z,0.899
2023-03-10T07:02:21.478Z,1
2023-03-10T07:03:21.508Z,0.899
2023-03-10T07:04:21.925Z,1.200
2023-03-10T07:05:22.118Z,1.100
2023-03-10T07:06:21.404Z,1.299
2023-03-10T07:07:21.674Z,1
2023-03-10T07:08:21.478Z,1.399
2023-03-10T07:09:21.863Z,1.200
2023-03-10T07:10:22.299Z,1.100
2023-03-10T07:11:22.113Z,1.200
2023-03-10T07:12:21.465Z,1.299
2023-03-10T07:13:21.612Z,1.700
2023-03-10T07:14:21.401Z,1.5
2023-03-10T07:15:22.609Z,1.299
2023-03-10T07:16:21.606Z,1.399
2023-03-10T07:17:21.993Z,1.5
2023-03-10T07:19:21.484Z,1.700
2023-03-10T07:20:22.441Z,1.299
2023-03-10T07:21:21.519Z,1.100
2023-03-10T07:22:21.548Z,1.5
2023-03-10T07:23:21.873Z,1.200
2023-03-10T07:24:21.425Z,1.399
2023-03-10T07:25:24.544Z,1.600
2023-03-10T07:26:22.054Z,1.5
2023-03-10T07:27:21.724Z,1.600
2023-03-10T07:28:29.791Z,1.399
2023-03-10T07:29:21.520Z,1.799
2023-03-10T07:30:22.372Z,1.5
2023-03-10T07:31:21.533Z,1.399
2023-03-10T07:32:21.703Z,1.700
2023-03-10T07:33:21.492Z,1.399
2023-03-10T07:34:21.823Z,1.5
2023-03-10T07:35:22.333Z,1.600
2023-03-10T07:37:21.114Z,1.700
2023-03-10T07:38:21.947Z,2
2023-03-10T07:39:22.034Z,1.600
2023-03-10T07:40:22.378Z,1.799
2023-03-10T07:41:21.701Z,1.5
2023-03-10T07:42:21.650Z,1.899
2023-03-10T07:43:22.024Z,1.600
2023-03-10T07:44:21.830Z,1.700
2023-03-10T07:45:21.868Z,1.5
2023-03-10T07:46:22.386Z,1.700
2023-03-10T07:47:21.373Z,1.899
2023-03-10T07:48:21.609Z,1.600
2023-03-10T07:49:22.260Z,1.799
2023-03-10T07:50:21.871Z,1.5
2023-03-10T07:51:22.256Z,1.399
2023-03-10T07:52:21.760Z,1.799
2023-03-10T07:53:22.182Z,1.700
2023-03-10T07:55:22.100Z,1.399
2023-03-10T07:57:22.219Z,1.700
2023-03-10T07:58:21.801Z,1.5
2023-03-10T07:59:22.168Z,1.399
2023-03-10T08:00:23.058Z,1.600
2023-03-10T08:01:22.218Z,1.299
2023-03-10T08:02:22.668Z,1.200
2023-03-10T08:03:21.960Z,1.600
2023-03-10T08:04:21.808Z,1.399
2023-03-10T08:06:22.294Z,1.200
2023-03-10T08:07:22.221Z,1.100
2023-03-10T08:08:22.228Z,1.5
2023-03-10T08:09:22.236Z,1.299
2023-03-10T08:11:21.679Z,1.100
2023-03-10T08:12:21.762Z,1.200
2023-03-10T08:13:22.329Z,1.399
2023-03-10T08:14:21.324Z,1
2023-03-10T08:15:22.595Z,1.200
2023-03-10T08:16:21.969Z,1.100
2023-03-10T08:17:21.994Z,0.899
2023-03-10T08:18:21.899Z,1.100
2023-03-10T08:19:27.021Z,0.800
2023-03-10T08:20:21.973Z,1
2023-03-10T08:21:22.148Z,1.100
2023-03-10T08:22:22.719Z,0.899
2023-03-10T08:23:21.731Z,1.200
2023-03-10T08:24:21.460Z,1.100
2023-03-10T08:25:22.322Z,1.399
2023-03-10T08:26:22.031Z,1.100
2023-03-10T08:29:21.591Z,1
2023-03-10T08:32:21.720Z,0.899
2023-03-10T08:34:21.984Z,1
2023-03-10T08:35:22.574Z,0.899
2023-03-10T08:39:22.808Z,1.100
2023-03-10T08:40:22.230Z,0.800
2023-03-10T08:41:22.168Z,1.100
2023-03-10T08:42:21.711Z,0.800
2023-03-10T08:44:22.056Z,1
2023-03-10T08:45:22.564Z,0.699
2023-03-10T08:46:22.022Z,1.100
2023-03-10T08:47:22.051Z,1.299
2023-03-10T08:48:21.576Z,1.200
2023-03-10T08:49:21.874Z,0.899
2023-03-10T08:50:22.377Z,1.200
2023-03-10T08:51:22.750Z,1.100
2023-03-10T08:52:22.364Z,1
2023-03-10T08:53:22.079Z,0.800
2023-03-10T08:54:21.981Z,1
2023-03-10T08:55:22.405Z,0.899
2023-03-10T08:57:22.010Z,1
2023-03-10T08:58:22.179Z,1.100
2023-03-10T08:59:23.108Z,0.800
2023-03-10T09:03:21.986Z,0.699
2023-03-10T09:04:21.856Z,0.899
2023-03-10T09:05:22.031Z,0.600
2023-03-10T09:06:22.035Z,0.699
2023-03-10T09:07:21.905Z,1.100
2023-03-10T09:08:22.099Z,0.800
2023-03-10T09:10:21.781Z,0.699
2023-03-10T09:11:22.302Z,0.899
2023-03-10T09:12:22.010Z,1.200
2023-03-10T09:13:21.452Z,1.100
2023-03-10T09:14:21.980Z,1.299
2023-03-10T09:16:22.202Z,1.100
2023-03-10T09:17:21.866Z,1.200
2023-03-10T09:18:21.818Z,1
2023-03-10T09:19:22.091Z,0.899
2023-03-10T09:20:21.789Z,1.100
2023-03-10T09:21:22.347Z,1.600
2023-03-10T09:22:22.625Z,1.200
2023-03-10T09:23:22.618Z,1.100
2023-03-10T09:25:21.808Z,1.5
2023-03-10T09:26:22.190Z,1.100
2023-03-10T09:27:21.519Z,1.200
2023-03-10T09:28:22.569Z,1.399
2023-03-10T09:29:36.422Z,1.100
2023-03-10T09:31:22.182Z,1.200
2023-03-10T09:32:22.822Z,1.299
2023-03-10T09:33:22.657Z,1.5
2023-03-10T09:35:23.163Z,1.399
2023-03-10T09:36:22.449Z,1.200
2023-03-10T09:37:22.924Z,1.100
2023-03-10T09:38:22.241Z,1.399
2023-03-10T09:39:21.918Z,1.5
2023-03-10T09:40:22.344Z,1.299
2023-03-10T09:42:36.347Z,1.5
2023-03-10T09:43:22.846Z,1.600
2023-03-10T09:44:23.040Z,1.399
2023-03-10T09:45:22.557Z,1.299
2023-03-10T09:46:22.135Z,1.200
2023-03-10T09:47:22.068Z,1.399
2023-03-10T09:49:22.574Z,1.100
2023-03-10T09:50:22.668Z,1.399
2023-03-10T09:52:22.208Z,1.600
2023-03-10T09:53:22.634Z,1.399
2023-03-10T09:54:22.263Z,1.299
2023-03-10T09:55:22.719Z,1.5
2023-03-10T09:56:21.715Z,1.299
2023-03-10T09:57:22.357Z,1.399
2023-03-10T09:58:22.216Z,1.5
2023-03-10T10:00:23.323Z,1.399
2023-03-10T10:02:21.886Z,1.100
2023-03-10T10:03:22.770Z,1.299
2023-03-10T10:04:22.546Z,1.399
2023-03-10T10:05:22.453Z,1.100
2023-03-10T10:06:22.547Z,1
2023-03-10T10:07:22.469Z,1.399
2023-03-10T10:08:21.734Z,1.200
2023-03-10T10:10:22.494Z,1.299
2023-03-10T10:11:21.931Z,1.399
2023-03-10T10:12:22.345Z,1.299
2023-03-10T10:13:22.938Z,1.399
2023-03-10T10:14:29.597Z,1.200
2023-03-10T10:15:22.795Z,1.299
2023-03-10T10:16:34.001Z,1.200
2023-03-10T10:18:25.448Z,1.100
2023-03-10T10:19:22.163Z,1.200
2023-03-10T10:20:22.255Z,1.100
2023-03-10T10:21:25.932Z,1.200
2023-03-10T10:22:22.408Z,1
2023-03-10T10:23:22.088Z,1.299
2023-03-10T10:24:22.959Z,1.100
2023-03-10T10:26:21.703Z,1.200
2023-03-10T10:28:23.952Z,1.200
2023-03-10T10:29:22.122Z,1.100
2023-03-10T10:30:25.439Z,1.200
2023-03-10T10:31:22.811Z,1.100
2023-03-10T10:32:23.147Z,1
2023-03-10T10:33:22.632Z,1.100
2023-03-10T10:34:22.259Z,0.800
2023-03-10T10:35:22.544Z,1
2023-03-10T10:36:22.614Z,1.200
2023-03-10T10:37:22.663Z,1.100
2023-03-10T10:39:22.438Z,0.899
2023-03-10T10:41:22.477Z,1
2023-03-10T10:44:22.410Z,1.100
2023-03-10T10:45:23.266Z,0.899
2023-03-10T10:46:22.503Z,0.800
2023-03-10T10:47:22.833Z,0.899
2023-03-10T10:48:22.375Z,0.800
2023-03-10T10:49:22.466Z,0.899
2023-03-10T10:50:22.577Z,0.800
2023-03-10T10:51:22.973Z,0.899
2023-03-10T10:53:22.116Z,0.800
2023-03-10T10:54:22.631Z,0.600
2023-03-10T10:56:21.716Z,0.699
2023-03-10T10:58:21.914Z,0.600
2023-03-10T10:59:23.409Z,0.699
2023-03-10T11:00:29.801Z,0.600
2023-03-10T11:03:23.132Z,0.600
2023-03-10T11:04:23.612Z,0.800
2023-03-10T11:05:22.504Z,1
2023-03-10T11:06:36.710Z,0.699
2023-03-10T11:07:22.310Z,0.5
2023-03-10T11:09:22.429Z,0.600
2023-03-10T11:10:22.761Z,0.699
2023-03-10T11:11:22.350Z,0.5
2023-03-10T11:13:22.308Z,0.400
2023-03-10T11:14:21.745Z,0.5
2023-03-10T11:16:22.213Z,0.800
2023-03-10T11:17:22.889Z,0.600
2023-03-10T11:18:41.312Z,0.5
2023-03-10T11:21:22.037Z,0.600
2023-03-10T11:22:22.220Z,0.5
2023-03-10T11:23:22.488Z,0.400
2023-03-10T11:24:23.533Z,0.600
2023-03-10T11:25:22.299Z,0.400
2023-03-10T11:26:22.750Z,0.5
2023-03-10T11:27:22.300Z,0.400
2023-03-10T11:28:21.940Z,0.300
2023-03-10T11:29:22.852Z,0.600
2023-03-10T11:31:22.887Z,0.400
2023-03-10T11:36:22.639Z,0.300
2023-03-10T11:38:22.224Z,0.5
2023-03-10T11:39:29.864Z,0.400
2023-03-10T11:41:22.075Z,0.300
2023-03-10T11:42:23.669Z,0.5
2023-03-10T11:43:22.615Z,0.300
2023-03-10T11:44:22.099Z,0.400
2023-03-10T11:45:22.387Z,0.300
2023-03-10T11:48:23.098Z,0.200
2023-03-10T11:49:22.520Z,0.400
2023-03-10T11:51:21.982Z,0.5
2023-03-10T11:52:21.917Z,0.300
2023-03-10T11:53:22.099Z,0.400
2023-03-10T11:54:21.961Z,0.5
2023-03-10T11:55:21.926Z,0.400
2023-03-10T11:56:22.330Z,0.300
2023-03-10T11:57:22.474Z,0.600
2023-03-10T11:58:22.588Z,0.800
2023-03-10T11:59:22.154Z,0.699
2023-03-10T12:00:26.196Z,0.899
2023-03-10T12:01:22.637Z,0.699
2023-03-10T12:02:22.318Z,1
2023-03-10T12:03:22.489Z,0.699
2023-03-10T12:04:22.178Z,0.800
2023-03-10T12:05:22.902Z,0.600
2023-03-10T12:09:22.717Z,0.5
2023-03-10T12:11:22.173Z,0.800
2023-03-10T12:12:22.087Z,0.699
2023-03-10T12:13:22.424Z,0.5
2023-03-10T12:14:21.958Z,0.600
2023-03-10T12:16:22.010Z,0.300
2023-03-10T12:17:22.929Z,0.200
2023-03-10T12:18:24.995Z,0.300
2023-03-10T12:19:22.811Z,0.200
2023-03-10T12:21:22.202Z,0.300
2023-03-10T12:22:22.786Z,0.200
2023-03-10T12:23:22.722Z,0.100
2023-03-10T12:24:22.483Z,0.200
2023-03-10T12:25:22.122Z,0.100
2023-03-10T12:26:23.209Z,0.200
2023-03-10T12:27:22.978Z,0.100
2023-03-10T12:28:22.348Z,0.200
2023-03-10T12:29:22.065Z,0.300
2023-03-10T12:32:22.805Z,0.200
2023-03-10T12:33:22.249Z,0.100
2023-03-10T12:36:22.116Z,0.300
2023-03-10T12:37:22.220Z,0.200
2023-03-10T12:38:22.734Z,0.100
2023-03-10T12:40:22.420Z,0.200
2023-03-10T12:42:22.108Z,0
2023-03-10T12:43:22.570Z,0.100
2023-03-10T12:45:22.494Z,0.200
2023-03-10T12:47:22.184Z,0.100
2023-03-10T12:48:22.449Z,0.200
2023-03-10T12:49:22.127Z,0
2023-03-10T12:50:22.944Z,0.100
2023-03-10T12:52:22.270Z,0.200
2023-03-10T12:54:22.504Z,0.300
2023-03-10T12:57:22.390Z,0.200
2023-03-10T12:58:22.582Z,0.100
2023-03-10T13:00:23.154Z,0.200
2023-03-10T13:01:22.571Z,0.100
2023-03-10T13:02:24.736Z,0.200
2023-03-10T13:09:22.334Z,0.400
2023-03-10T13:10:22.614Z,0.200
2023-03-10T13:12:22.620Z,0.100
2023-03-10T13:13:22.627Z,0.200
2023-03-10T13:16:22.157Z,0
2023-03-10T13:17:24.861Z,0.200
2023-03-10T13:20:22.795Z,0.300
2023-03-10T13:23:30.455Z,0.200
2023-03-10T13:25:22.104Z,0.300
2023-03-10T13:26:22.653Z,0.400
2023-03-10T13:28:21.662Z,0.300
2023-03-10T13:29:22.170Z,0.600
2023-03-10T13:31:36.631Z,0.699
2023-03-10T13:32:21.724Z,0.5
2023-03-10T13:33:25.313Z,0.400
2023-03-10T13:34:21.886Z,0.5
2023-03-10T13:35:22.542Z,0.400
2023-03-10T13:36:22.158Z,0.200
2023-03-10T13:37:36.969Z,0.100
2023-03-10T13:38:22.316Z,0.300
2023-03-10T13:39:24.340Z,0.100
2023-03-10T13:40:22.721Z,0.200
2023-03-10T13:42:28.289Z,0.300
2023-03-10T13:43:22.808Z,0.200
2023-03-10T13:44:22.382Z,0.300
2023-03-10T13:45:41.564Z,0.200
2023-03-10T13:46:22.529Z,0.100
2023-03-10T13:47:22.635Z,0.300
2023-03-10T13:49:22.663Z,0.200
2023-03-10T13:50:21.988Z,0
2023-03-10T13:51:22.070Z,0.100
2023-03-10T13:53:22.258Z,0.200
2023-03-10T13:54:22.031Z,0.100
2023-03-10T13:55:22.512Z,0.200
2023-03-10T13:57:22.238Z,0.100
2023-03-10T13:58:21.824Z,0.400
2023-03-10T13:59:22.027Z,0.100
2023-03-10T14:00:23.751Z,0.200
2023-03-10T14:01:44.738Z,0.100
2023-03-10T14:02:22.707Z,0.300
2023-03-10T14:03:22.665Z,0.200
2023-03-10T14:05:22.857Z,0
2023-03-10T14:06:22.747Z,0.200
2023-03-10T14:07:22.651Z,0.100
2023-03-10T14:10:22.304Z,0.300
2023-03-10T14:11:22.146Z,0.200
2023-03-10T14:13:22.427Z,0.300
2023-03-10T14:14:22.546Z,0.100
2023-03-10T14:16:22.747Z,0.200
2023-03-10T14:18:25.005Z,0.200
2023-03-10T14:20:22.718Z,0.100
2023-03-10T14:21:22.248Z,0.300
2023-03-10T14:22:22.684Z,0.200
2023-03-10T14:23:22.372Z,0.100
2023-03-10T14:24:22.602Z,0.200
2023-03-10T14:26:22.973Z,0.400
2023-03-10T14:27:22.745Z,0.300
2023-03-10T14:30:23.349Z,0.200
2023-03-10T14:32:22.951Z,0.300
2023-03-10T14:33:22.597Z,0.5
2023-03-10T14:34:22.635Z,0.400
2023-03-10T14:37:22.626Z,0.600
2023-03-10T14:38:22.154Z,0.400
2023-03-10T14:39:22.966Z,0.600
2023-03-10T14:40:22.431Z,0.899
2023-03-10T14:41:22.162Z,0.800
2023-03-10T14:42:22.450Z,0.699
2023-03-10T14:44:23.286Z,0.899
2023-03-10T14:45:23.077Z,0.800
2023-03-10T14:46:22.832Z,0.400
2023-03-10T14:47:22.400Z,0.600
2023-03-10T14:48:22.138Z,0.800
2023-03-10T14:49:21.899Z,0.600
2023-03-10T14:51:34.905Z,0.5
2023-03-10T14:52:22.115Z,0.600
2023-03-10T14:53:22.203Z,0.5
2023-03-10T14:55:22.237Z,0.400
2023-03-10T14:56:22.408Z,0.699
2023-03-10T14:57:22.322Z,0.5
2023-03-10T14:59:22.306Z,0.600
2023-03-10T15:00:23.189Z,0.699
2023-03-10T15:02:22.383Z,0.800
2023-03-10T15:03:22.770Z,0.600
2023-03-10T15:04:23.072Z,0.899
2023-03-10T15:08:23.545Z,0.800
2023-03-10T15:09:22.816Z,1
2023-03-10T15:10:22.917Z,0.899
2023-03-10T15:11:36.011Z,1.100
2023-03-10T15:12:21.727Z,0.899
2023-03-10T15:13:21.679Z,1
2023-03-10T15:15:22.107Z,1.100
2023-03-10T15:16:23.074Z,0.899
2023-03-10T15:17:22.727Z,0.699
2023-03-10T15:18:22.045Z,1
2023-03-10T15:19:21.877Z,0.899
2023-03-10T15:20:22.557Z,0.699
2023-03-10T15:21:22.005Z,0.800
2023-03-10T15:22:22.300Z,1
2023-03-10T15:23:22.175Z,0.699
2023-03-10T15:24:22.408Z,0.800
2023-03-10T15:28:22.011Z,0.600
2023-03-10T15:29:21.928Z,0.699
2023-03-10T15:30:22.721Z,0.899
2023-03-10T15:31:22.127Z,0.800
2023-03-10T15:32:22.535Z,0.899
2023-03-10T15:33:21.713Z,0.800
2023-03-10T15:36:22.481Z,0.699
2023-03-10T15:37:22.392Z,0.800
2023-03-10T15:38:22.326Z,0.600
2023-03-10T15:39:31.414Z,0.899
2023-03-10T15:40:22.232Z,0.800
2023-03-10T15:42:28.351Z,0.600
2023-03-10T15:43:22.208Z,0.899
2023-03-10T15:44:22.065Z,0.699
2023-03-10T15:46:27.261Z,0.899
2023-03-10T15:48:30.743Z,0.800
2023-03-10T15:49:21.862Z,1
2023-03-10T15:50:30.108Z,0.800
2023-03-10T15:51:22.238Z,0.899
2023-03-10T15:53:22.505Z,0.800
2023-03-10T15:55:22.769Z,0.699
2023-03-10T15:56:35.905Z,0.899
2023-03-10T15:57:21.895Z,0.5
2023-03-10T15:58:27.222Z,0.699
2023-03-10T15:59:21.700Z,0.600
2023-03-10T16:00:37.519Z,0.400
2023-03-10T16:01:23.092Z,0.600
2023-03-10T16:03:21.960Z,0.5
2023-03-10T16:05:23.097Z,0.400
2023-03-10T16:07:22.276Z,0.300
2023-03-10T16:08:21.922Z,0.5
2023-03-10T16:09:22.384Z,0.400
2023-03-10T16:11:21.984Z,0.300
2023-03-10T16:12:36.936Z,0.5
2023-03-10T16:13:22.128Z,0.400
2023-03-10T16:14:40.983Z,0.300
2023-03-10T16:15:22.841Z,0.400
2023-03-10T16:17:22.130Z,0.300
2023-03-10T16:18:41.636Z,0.400
2023-03-10T16:20:23.183Z,0.300
2023-03-10T16:21:22.679Z,0.200
2023-03-10T16:23:22.413Z,0.100
2023-03-10T16:24:36.003Z,0.400
2023-03-10T16:25:22.363Z,0.200
2023-03-10T16:26:22.439Z,0.300
2023-03-10T16:27:23.333Z,0.400
2023-03-10T16:30:22.331Z,0.200
2023-03-10T16:31:22.268Z,0.300
2023-03-10T16:32:29.913Z,0.100
2023-03-10T16:36:22.041Z,0.200
2023-03-10T16:37:21.812Z,0.100
2023-03-10T16:39:23.453Z,0.300
2023-03-10T16:41:22.620Z,0.200
2023-03-10T16:42:22.123Z,0.400
2023-03-10T16:43:22.094Z,0.100
2023-03-10T16:44:22.551Z,0.200
2023-03-10T16:45:22.119Z,0.300
2023-03-10T16:50:22.330Z,0.200
2023-03-10T16:54:21.635Z,0.300
2023-03-10T16:56:22.207Z,0.200
2023-03-10T16:57:22.684Z,0.300
2023-03-10T17:00:23.267Z,0.5
2023-03-10T17:01:22.732Z,0.800
2023-03-10T17:03:22.770Z,0.899
2023-03-10T17:05:22.922Z,1.100
2023-03-10T17:07:22.034Z,1.200
2023-03-10T17:08:22.105Z,1.100
2023-03-10T17:09:21.925Z,1
2023-03-10T17:11:22.404Z,0.899
2023-03-10T17:12:22.741Z,1.200
2023-03-10T17:16:22.750Z,1
2023-03-10T17:17:22.561Z,1.100
2023-03-10T17:18:22.013Z,1.299
2023-03-10T17:19:22.793Z,1.200
2023-03-10T17:20:22.483Z,1.5
2023-03-10T17:21:21.962Z,1.200
2023-03-10T17:22:23.000Z,1.5
2023-03-10T17:23:22.833Z,1.600
2023-03-10T17:26:22.357Z,1.5
2023-03-10T17:27:23.060Z,1.700
2023-03-10T17:29:22.505Z,1.799
2023-03-10T17:30:22.678Z,1.899
2023-03-10T17:31:22.649Z,2.200